Aktualne dane pomiarowe

Uwaga, wersja testowa! Automatyczne pobieranie danych za pomocą narzędzi lub skryptów to umożliwiających jest zabronione.

Dane meteo z obszaru Polski uzyskane na podstawie depesz SYNOP pobieranych co godzinę z NWS. Najedź myszką na symbol przedstawiony w tabeli, aby uzyskać informacje co do jego znaczenia. Prosimy pamiętać, że to testowa wersja strony, która jeszcze nie jest ukończona. Stworzono również jest krótki FAQ dotyczący korzystania z tej podstrony Anomalie temperatury w chwili obecnej odniesione są do okresu referencyjnego 1951-2016. Okres ten będzie później zmieniony na 1981-2010. Kliknij ikonę aby pobrać plik CSV. Kliknij ikonę aby wygenerować mapę synoptyczną dla danego terminu.

Wybierz Datę:    

        

Legnica (12415)

Dane terminowe dla wybranej stacji. Kliknij datę, aby otrzymać dane z tego terminu dla wszystkich stacji.

TemperaturaZachmurzenieWiatrCiśnienieOpadyPogoda
 Data t td wb tx tn tg rh  Nt Nl Cl Cm Ch ws wd g1 g2 wx mslp ppp ch 24h 12h t ww ww w1 w2  
2019-08-08 23:00:00 16.4 12.6 13.9--- 7850.0--2wx--21012.8 998.0 0.7---------
2019-08-08 22:00:00 16.8 12.5 14.0--- 7640.0--2wx--21012.9 998.1 1.2---------
2019-08-08 21:00:00 18.0 12.4 14.4--- 7050.0--2wx--21012.4 997.7 1.3---------
2019-08-08 20:00:00 19.7 12.5 15.1--- 6350.0--2wx---1011.9 997.3 0.9---------
2019-08-08 19:00:00 21.2 12.9 16.0--- 5945.0--3wx--31011.5 996.9 0.5---------
2019-08-08 18:00:00 23.3 12.6 16.7 26.8 18.8- 5150.0wxwxwxwxwx3wx-1131010.9 996.4 0.0- 0.012------
2019-08-08 17:00:00 25.2 10.6 16.5--- 4050.0wxwxwxwxwx6wx-1161010.8 996.4 0.0---------
2019-08-08 16:00:00 25.7 10.3 16.6--- 3850.0wxwxwxwxwx6wx---1010.7 996.4 -0.3---------
2019-08-08 15:00:00 26.3 11.6 17.4--- 4050.0wxwxwxwxwx5wx--51010.7 996.4 -0.5---------
2019-08-08 14:00:00 26.6 12.3 17.9--- 4150.0wxwxwxwxwx5wx--51010.7 996.4 -0.6---------
2019-08-08 13:00:00 25.7 11.5 17.2--- 4150.0wxwxwxwxwx6wx--61011.0 996.7 -0.2---------
2019-08-08 12:00:00 25.2 12.4 17.4--- 4550.0wxwxwxwx6wx-1261011.3 996.9 -0.1- 0.06------
2019-08-08 11:00:00 25.1 12.7 17.5--- 4650.0wxwxwxwx6wx121261011.4 997.0 -0.2---------
2019-08-08 10:00:00 23.8 13.3 17.2--- 5250.0wxwxwxwx7wx--71011.3 996.9 0.0---------
2019-08-08 09:00:00 22.7 16.0 18.2--- 6650.0wxwxwxwx3wx--31011.5 997.0 0.5---------
2019-08-08 08:00:00 21.4 15.5 17.5--- 6950.0wxwxwxwx5wx--51011.8 997.2 1.3---------
2019-08-08 07:00:00 20.2 15.6 17.1--- 7540.0wxwxwx4wx--41011.5 996.9 1.3---------
2019-08-08 06:00:00 18.8 15.4 16.5 20.2 16.9 16 8140.0wx-4wx--41011.2 996.5 1.5 4.0 3.012wx---- 4.8
2019-08-08 05:00:00 17.4 15.4 16.0--- 8819.0--4wx---1010.6 995.9 1.3---------
2019-08-08 04:00:00 17.0 15.3 15.8--- 9023.0--5wx---1010.4 995.6 1.5---------
2019-08-08 03:00:00 17.8 16.0 16.5--- 8918.0--4wx--41009.7 995.0 1.2---------
2019-08-08 02:00:00 17.8 16.1 16.6--- 9030.0--3wx--31009.3 994.6 0.9---------
2019-08-08 01:00:00 18.1 16.6 17.0--- 9129.0--4wx--41008.8 994.1 0.5---------
2019-08-08 00:00:00 18.4 17.1 17.5--- 9216.0--4wx--41008.5 993.8 0.7- 3.06wx-----
2019-08-07 23:00:00 18.5 17.2 17.6--- 9250.0--3wx--31008.4 993.7 0.9---wx-----
2019-08-07 22:00:00 18.7 17.5 17.8--- 9324.0--3wx--31008.2 993.6 1.0---wx-----
2019-08-07 21:00:00 18.7 17.5 17.8--- 9340.0--3wx--31007.7 993.1 1.0---wx-----
2019-08-07 20:00:00 18.9 17.7 18.0--- 9323.0--3wx---1007.4 992.8 1.1---wx-----
2019-08-07 19:00:00 19.5 18.2 18.5--- 9210.0--4wx---1007.2 992.6 1.5---wx-----
2019-08-07 18:00:00 20.2 18.3 18.8 29.1 19.2- 8940.0wxwxwxwx2wx--21006.6 992.1 0.9- 1.012wx-w1--
2019-08-07 17:00:00 21.4 19.3 19.9--- 8840.0wxwxwxwx3wx--31006.2 991.7 0.6---wx-w1--
2019-08-07 16:00:00 26.7 14.8 19.2--- 4830.0wxwxwx4wx--41005.3 991.1 -0.6---wx---
2019-08-07 15:00:00 27.8 14.1 19.2--- 4340.0wxwxwxwxwx5wx--51005.4 991.2 -1.3---------
2019-08-07 14:00:00 28.9 13.6 19.4--- 3950.0wxwxwxwx4wx---1005.2 991.1 -2.2---wx---
2019-08-07 13:00:00 29.0 14.0 19.6--- 4050.0wxwxwxwx3wx--31005.8 991.7 -1.8---------
2019-08-07 12:00:00 27.5 15.2 19.7--- 4750.0wxwxwxwxwx2wx--21006.7 992.5 -1.3- 0.06------
2019-08-07 11:00:00 26.5 15.5 19.4--- 5150.0wxwxwxwxwx3wx--31007.6 993.3 -0.4---------
2019-08-07 10:00:00 25.3 15.3 18.9--- 5450.0wxwxwxwxwx2wx--21007.8 993.5 -0.2---------
2019-08-07 09:00:00 24.0 15.2 18.3--- 5850.0wxwxwxwxwx1wx---1008.2 993.8 0.4---------
2019-08-07 08:00:00 23.8 15.0 18.1--- 5840.0wxwxwxwxwx2wx--21008.1 993.7 0.0---------
2019-08-07 07:00:00 20.7 16.9 18.1--- 7940.0wx-wxwx1wx--11008.2 993.7 -0.1---------
2019-08-07 06:00:00 19.2 16.5 17.3 25.5 16.0 14 8450.0wxwxwxwx1wx--11008.0 993.4 -0.5- 0.012wx---- 8.9
2019-08-07 05:00:00 17.7 16.0 16.5--- 9030.0--1wx--11008.4 993.7 -0.4---------
2019-08-07 04:00:00 16.6 15.0 15.5--- 9035.0--1wx---1008.6 993.8 -0.8---------
2019-08-07 03:00:00 16.6 14.8 15.3--- 8935.0--0---01008.7 993.9 -0.7---------
2019-08-07 02:00:00 16.4 14.8 15.3--- 9029.0--0---01008.9 994.1 -0.8---------
2019-08-07 01:00:00 16.4 14.8 15.3--- 9035.0--2wx--21009.4 994.6 0.3---------
2019-08-07 00:00:00 17.5 14.9 15.7--- 8535.0--1wx--11009.3 994.6 0.5- 0.06------
1.2 ms

 

Print Friendly, PDF & Email